Time;durP1;ratioP1;P1;durP2;ratioP2;P2;SDS_P1;SDS_P2;PMS_P1;PMS_P2;Temp;Humidity;BMP_temperature;BMP_pressure;BME280_temperature;BME280_humidity;BME280_pressure;Samples;Min_cycle;Max_cycle;Signal;HPM_P1;HPM_P2
2022/05/18 04:02:16;;;;;;;2.17;1.97;;;13.90;99.90;;;;;;5110831;23;20527;-69
2022/05/18 04:04:43;;;;;;;1.80;1.73;;;13.90;99.90;;;;;;4947072;29;20460;-68
2022/05/18 04:07:10;;;;;;;2.30;2.30;;;13.90;99.90;;;;;;4955293;28;20472;-68
2022/05/18 04:09:36;;;;;;;2.00;2.00;;;13.90;99.90;;;;;;4954609;28;20465;-68
2022/05/18 04:12:04;;;;;;;1.73;1.63;;;13.90;99.90;;;;;;4954981;28;20811;-68
2022/05/18 04:14:30;;;;;;;2.00;2.00;;;13.90;99.90;;;;;;4985365;23;20503;-67
2022/05/18 04:16:57;;;;;;;5.70;2.27;;;13.90;99.90;;;;;;4974009;28;20530;-67
2022/05/18 04:19:25;;;;;;;1.70;1.60;;;13.90;99.90;;;;;;4973819;28;20543;-67
2022/05/18 04:21:51;;;;;;;2.80;2.70;;;13.90;99.90;;;;;;4973744;28;20464;-67
2022/05/18 04:24:18;;;;;;;2.20;2.10;;;14.00;99.90;;;;;;4966832;28;20492;-67
2022/05/18 04:26:45;;;;;;;1.97;1.97;;;14.00;99.90;;;;;;4954547;28;20954;-67
2022/05/18 04:29:12;;;;;;;3.10;2.07;;;14.00;99.90;;;;;;4954182;28;20464;-67
2022/05/18 04:31:39;;;;;;;2.37;2.27;;;14.00;99.90;;;;;;4954457;28;20871;-69
2022/05/18 04:34:05;;;;;;;2.43;2.23;;;14.00;99.90;;;;;;4954472;28;20488;-67
2022/05/18 04:36:33;;;;;;;1.97;1.90;;;14.10;99.90;;;;;;4954671;28;20771;-67
2022/05/18 04:39:00;;;;;;;2.03;2.03;;;14.10;99.90;;;;;;4954209;28;20473;-67
2022/05/18 04:41:27;;;;;;;1.70;1.70;;;14.30;99.90;;;;;;4953685;28;20464;-67
2022/05/18 04:43:53;;;;;;;2.30;2.20;;;14.60;99.90;;;;;;4953683;28;20551;-67
2022/05/18 04:46:20;;;;;;;3.37;3.17;;;14.80;99.90;;;;;;4953963;28;20471;-67
2022/05/18 04:48:47;;;;;;;2.00;2.00;;;15.20;99.90;;;;;;4953987;28;20496;-68
2022/05/18 04:51:13;;;;;;;2.07;2.07;;;15.70;99.90;;;;;;4953538;28;20520;-68
2022/05/18 04:53:41;;;;;;;2.37;2.27;;;16.30;99.90;;;;;;4948892;28;20469;-67
2022/05/18 04:56:08;;;;;;;4.93;2.00;;;16.80;99.90;;;;;;4953623;28;20468;-68
2022/05/18 04:58:35;;;;;;;2.30;2.10;;;17.30;99.90;;;;;;4953594;28;20464;-68
2022/05/18 05:01:05;;;;;;;2.30;2.20;;;17.60;99.90;;;;;;4953095;28;20579;-68
2022/05/18 05:03:31;;;;;;;5.20;2.70;;;18.00;99.90;;;;;;4954097;28;20549;-68
2022/05/18 05:05:58;;;;;;;2.50;2.30;;;18.20;99.90;;;;;;4954074;28;20503;-69
2022/05/18 05:08:25;;;;;;;2.37;2.17;;;18.30;99.90;;;;;;4954377;28;20492;-68
2022/05/18 05:10:53;;;;;;;2.27;2.17;;;18.60;99.90;;;;;;4954639;28;20481;-68
2022/05/18 05:13:19;;;;;;;1.87;1.87;;;18.60;99.90;;;;;;4953672;28;20538;-68
2022/05/18 05:15:46;;;;;;;3.10;2.63;;;18.40;99.90;;;;;;4953013;28;20504;-68
2022/05/18 05:18:13;;;;;;;2.40;2.30;;;18.30;99.90;;;;;;4953793;28;20537;-68
2022/05/18 05:20:39;;;;;;;2.97;2.87;;;18.20;99.90;;;;;;4952985;28;20484;-68
2022/05/18 05:23:06;;;;;;;2.40;2.40;;;18.00;99.90;;;;;;4953558;28;20961;-68
2022/05/18 05:25:33;;;;;;;2.83;2.70;;;17.70;99.90;;;;;;4953936;28;20530;-68
2022/05/18 05:28:01;;;;;;;2.00;2.00;;;17.60;99.90;;;;;;4953999;28;20468;-69
2022/05/18 05:30:28;;;;;;;3.00;2.87;;;17.30;99.90;;;;;;4952277;28;20461;-68
2022/05/18 05:32:54;;;;;;;3.10;2.90;;;17.20;99.90;;;;;;4953598;28;20472;-68
2022/05/18 05:35:21;;;;;;;3.10;3.00;;;17.10;99.90;;;;;;4953383;28;20504;-68
2022/05/18 05:37:48;;;;;;;2.53;2.53;;;16.90;99.90;;;;;;4953134;28;20460;-68
2022/05/18 05:40:16;;;;;;;2.60;2.57;;;16.80;99.90;;;;;;4952625;28;20497;-67
2022/05/18 05:42:43;;;;;;;4.23;2.90;;;16.70;99.90;;;;;;4950100;28;20469;-67
2022/05/18 05:45:13;;;;;;;2.90;2.80;;;16.70;99.90;;;;;;4952174;28;20676;-67
2022/05/18 05:47:39;;;;;;;4.87;3.03;;;16.80;99.90;;;;;;4953374;28;20922;-67
2022/05/18 05:50:08;;;;;;;2.50;2.50;;;17.10;99.90;;;;;;4952510;28;20537;-67
2022/05/18 05:52:35;;;;;;;2.53;2.50;;;17.30;99.90;;;;;;4953337;28;20472;-67
2022/05/18 05:55:01;;;;;;;5.33;3.67;;;17.30;99.90;;;;;;4952895;28;21021;-67
2022/05/18 05:57:28;;;;;;;3.10;2.90;;;17.60;99.90;;;;;;4952412;28;20546;-67
2022/05/18 05:59:55;;;;;;;3.23;3.20;;;17.90;99.90;;;;;;4951489;28;20519;-67
2022/05/18 06:02:23;;;;;;;3.40;3.27;;;18.40;99.90;;;;;;4952720;28;20468;-67
2022/05/18 06:04:50;;;;;;;2.57;2.47;;;18.90;99.90;;;;;;4952696;28;20895;-67
2022/05/18 06:07:16;;;;;;;3.17;3.07;;;18.50;99.90;;;;;;4952916;28;20944;-67
2022/05/18 06:09:43;;;;;;;4.13;3.73;;;18.40;99.90;;;;;;4952574;28;20472;-66
2022/05/18 06:12:11;;;;;;;3.93;3.83;;;18.30;99.90;;;;;;4953017;28;20476;-67
2022/05/18 06:14:37;;;;;;;3.57;3.37;;;18.60;99.90;;;;;;4952040;28;20523;-67
2022/05/18 06:17:04;;;;;;;3.40;3.30;;;19.30;99.90;;;;;;4953050;28;20781;-67
2022/05/18 06:19:33;;;;;;;3.70;3.60;;;19.70;99.90;;;;;;4952390;28;20898;-68
2022/05/18 06:22:00;;;;;;;3.53;3.20;;;20.20;99.90;;;;;;4953241;28;20468;-67
2022/05/18 06:24:27;;;;;;;4.00;3.90;;;20.40;99.90;;;;;;4952569;28;20539;-67
2022/05/18 06:26:56;;;;;;;3.20;3.10;;;20.70;99.90;;;;;;4952897;28;20477;-67
2022/05/18 06:29:23;;;;;;;3.90;3.77;;;20.60;99.90;;;;;;4951638;28;20972;-67
2022/05/18 06:31:49;;;;;;;3.83;3.57;;;20.20;99.90;;;;;;4943633;28;20508;-67
2022/05/18 06:34:17;;;;;;;3.03;2.70;;;20.10;99.90;;;;;;4952502;28;20506;-67
2022/05/18 06:36:45;;;;;;;3.37;3.27;;;20.00;99.90;;;;;;4952759;28;20544;-67
2022/05/18 06:39:11;;;;;;;3.97;3.83;;;20.40;99.90;;;;;;4952216;28;20882;-67
2022/05/18 06:41:38;;;;;;;4.20;4.00;;;20.90;99.90;;;;;;4951962;28;20869;-67
2022/05/18 06:44:05;;;;;;;4.30;4.20;;;20.90;99.90;;;;;;4951987;28;21089;-67
2022/05/18 06:46:36;;;;;;;4.70;4.60;;;20.80;99.90;;;;;;4952355;28;20468;-67
2022/05/18 06:49:03;;;;;;;4.43;4.10;;;20.30;99.90;;;;;;4952213;28;21015;-67
2022/05/18 06:51:33;;;;;;;4.60;4.40;;;19.80;99.90;;;;;;4952073;28;20475;-67
2022/05/18 06:54:01;;;;;;;4.73;4.43;;;19.20;99.90;;;;;;4952395;28;20520;-67
2022/05/18 06:56:30;;;;;;;3.67;3.57;;;18.90;99.90;;;;;;4952664;28;20464;-67
2022/05/18 06:58:57;;;;;;;4.90;4.60;;;18.70;99.90;;;;;;4951398;28;20472;-67
2022/05/18 07:01:26;;;;;;;5.13;4.83;;;18.50;99.90;;;;;;4951923;28;20495;-67
2022/05/18 07:03:53;;;;;;;5.13;4.80;;;18.60;99.90;;;;;;4951608;28;20852;-67
2022/05/18 07:06:22;;;;;;;5.27;4.87;;;18.60;99.90;;;;;;4952321;28;20937;-67
2022/05/18 07:08:51;;;;;;;4.77;4.57;;;18.60;99.90;;;;;;4952746;28;20835;-67
2022/05/18 07:11:19;;;;;;;4.90;4.70;;;18.50;99.90;;;;;;4955588;28;20460;-67
2022/05/18 07:13:51;;;;;;;5.30;5.00;;;18.30;99.90;;;;;;4955106;28;20539;-67
2022/05/18 07:16:18;;;;;;;5.07;4.87;;;18.60;99.90;;;;;;4956315;28;20468;-68
2022/05/18 07:18:47;;;;;;;4.73;4.53;;;18.90;99.90;;;;;;4955893;28;20464;-68
2022/05/18 07:21:14;;;;;;;5.43;5.03;;;19.30;99.90;;;;;;4955342;28;20973;-68
2022/05/18 07:23:41;;;;;;;4.70;4.57;;;19.60;99.90;;;;;;4955734;28;20468;-68
2022/05/18 07:26:08;;;;;;;6.80;5.00;;;19.60;99.90;;;;;;4955860;28;20472;-68
2022/05/18 07:28:36;;;;;;;5.37;5.17;;;19.40;99.90;;;;;;4955415;28;20495;-68
2022/05/18 07:31:05;;;;;;;6.17;5.70;;;19.20;99.90;;;;;;4955552;28;20649;-68
2022/05/18 07:33:31;;;;;;;5.70;5.40;;;19.20;99.90;;;;;;4955625;28;20468;-68
2022/05/18 07:35:59;;;;;;;5.90;5.60;;;19.20;99.90;;;;;;4955680;28;20840;-68
2022/05/18 07:38:28;;;;;;;5.23;5.03;;;19.20;99.90;;;;;;4955461;28;20471;-68
2022/05/18 07:40:54;;;;;;;5.20;4.90;;;19.40;99.90;;;;;;4954784;28;20488;-68
2022/05/18 07:43:21;;;;;;;6.90;5.23;;;19.50;99.90;;;;;;4955208;28;20473;-68
2022/05/18 07:45:52;;;;;;;5.80;5.60;;;19.60;99.90;;;;;;4955080;28;20484;-68
2022/05/18 07:48:19;;;;;;;7.23;6.60;;;19.70;99.90;;;;;;4955570;28;20468;-68
2022/05/18 07:50:47;;;;;;;5.70;5.50;;;19.90;99.90;;;;;;4954706;28;20524;-68
2022/05/18 07:53:14;;;;;;;6.10;5.70;;;20.50;99.90;;;;;;4948203;28;20469;-68
2022/05/18 07:55:41;;;;;;;6.80;6.40;;;20.60;99.90;;;;;;4955242;28;20484;-68
2022/05/18 07:58:10;;;;;;;6.57;6.20;;;20.80;99.90;;;;;;4955533;28;20749;-68
2022/05/18 08:00:37;;;;;;;7.00;6.50;;;20.80;99.90;;;;;;4954091;28;21007;-68
2022/05/18 08:03:07;;;;;;;7.33;7.00;;;20.50;99.90;;;;;;4955311;28;20515;-68
2022/05/18 08:05:35;;;;;;;6.77;6.37;;;20.30;99.90;;;;;;4954777;28;20484;-68
2022/05/18 08:08:04;;;;;;;7.70;7.30;;;20.10;99.90;;;;;;4955279;28;20576;-68
2022/05/18 08:16:08;;;;;;;8.23;7.73;;;20.00;99.90;;;;;;4931172;28;20476;-68
2022/05/18 08:18:36;;;;;;;9.20;8.60;;;20.00;99.90;;;;;;4954939;28;20468;-68
2022/05/18 08:21:03;;;;;;;9.20;8.20;;;20.00;99.90;;;;;;4953365;28;20488;-68
2022/05/18 08:23:30;;;;;;;8.30;7.60;;;20.00;99.90;;;;;;4954638;28;20469;-68
2022/05/18 08:25:58;;;;;;;9.03;8.43;;;20.00;99.90;;;;;;4954682;28;20957;-68
2022/05/18 08:28:26;;;;;;;8.37;7.77;;;20.00;99.90;;;;;;4953988;28;20468;-68
2022/05/18 08:30:55;;;;;;;7.97;7.47;;;20.10;99.90;;;;;;4953400;28;20468;-68
2022/05/18 08:33:23;;;;;;;7.50;7.20;;;20.10;99.90;;;;;;4954169;28;21008;-68
2022/05/18 08:35:51;;;;;;;8.40;7.80;;;20.20;99.90;;;;;;4954691;28;20560;-68
2022/05/18 08:38:19;;;;;;;8.27;7.70;;;20.40;99.90;;;;;;4954477;28;20515;-68
2022/05/18 08:40:49;;;;;;;8.00;7.50;;;20.50;99.90;;;;;;4953614;28;20492;-68
2022/05/18 08:43:23;;;;;;;8.30;7.80;;;20.60;99.90;;;;;;4954029;28;20457;-68
2022/05/18 08:46:00;;;;;;;8.40;7.70;;;20.60;99.90;;;;;;4953931;28;20563;-68
2022/05/18 08:48:40;;;;;;;7.93;7.50;;;20.70;99.90;;;;;;4954630;28;20762;-68
2022/05/18 08:51:19;;;;;;;9.23;8.63;;;20.90;99.90;;;;;;4954052;28;20465;-68
2022/05/18 08:53:55;;;;;;;8.20;7.70;;;21.10;99.90;;;;;;4953949;28;20559;-68
2022/05/18 08:56:26;;;;;;;8.10;7.70;;;21.30;99.90;;;;;;4954301;28;20554;-68
2022/05/18 08:58:55;;;;;;;9.83;9.13;;;21.40;99.90;;;;;;4953491;28;20464;-68
2022/05/18 09:01:28;;;;;;;9.73;9.13;;;21.30;99.90;;;;;;4953512;28;20539;-68
2022/05/18 09:03:59;;;;;;;9.73;9.10;;;21.20;99.90;;;;;;4952967;28;20484;-68
2022/05/18 09:06:34;;;;;;;9.63;9.03;;;21.20;99.90;;;;;;4954459;28;20468;-68
2022/05/18 09:11:49;;;;;;;9.53;9.03;;;21.50;99.90;;;;;;4953532;29;20460;-68
2022/05/18 09:14:20;;;;;;;9.20;8.60;;;21.70;99.90;;;;;;4953019;28;20502;-68
2022/05/18 09:16:55;;;;;;;10.77;9.70;;;22.00;99.90;;;;;;4955114;28;20481;-68
2022/05/18 09:19:32;;;;;;;11.80;10.80;;;22.00;99.90;;;;;;4954005;28;20472;-68
2022/05/18 09:22:12;;;;;;;10.10;9.20;;;22.00;99.90;;;;;;4953905;28;20496;-68
2022/05/18 09:24:51;;;;;;;11.90;11.00;;;22.00;99.90;;;;;;4953461;28;20989;-68
2022/05/18 09:27:40;;;;;;;12.03;11.03;;;22.00;99.90;;;;;;4953777;28;20472;-68
2022/05/18 09:30:16;;;;;;;11.40;10.70;;;22.10;99.90;;;;;;4952257;28;20852;-68
2022/05/18 09:33:08;;;;;;;12.17;11.17;;;22.40;99.90;;;;;;4953850;28;21036;-68
2022/05/18 09:35:53;;;;;;;11.30;10.60;;;22.40;99.90;;;;;;4953842;28;20489;-68
2022/05/18 09:38:26;;;;;;;11.87;10.97;;;22.50;99.90;;;;;;4953726;28;20852;-68
2022/05/18 09:40:52;;;;;;;12.97;12.07;;;22.50;99.90;;;;;;4952477;28;21024;-68
2022/05/18 09:43:28;;;;;;;13.37;12.50;;;22.50;99.90;;;;;;4953516;28;20469;-68
2022/05/18 09:45:57;;;;;;;13.17;12.20;;;22.70;99.90;;;;;;4953211;28;20464;-68
2022/05/18 09:48:30;;;;;;;11.93;11.13;;;22.80;99.90;;;;;;4953368;28;20468;-67
2022/05/18 09:50:57;;;;;;;11.90;11.00;;;22.90;99.90;;;;;;4952837;28;20977;-67
2022/05/18 09:53:25;;;;;;;11.50;10.80;;;23.00;99.90;;;;;;4952815;28;20519;-67
2022/05/18 09:55:52;;;;;;;12.50;11.60;;;23.10;99.90;;;;;;4952966;28;20492;-67
2022/05/18 09:58:25;;;;;;;14.73;12.50;;;23.20;99.90;;;;;;4955305;28;20519;-67
2022/05/18 10:07:27;;;;;;;13.33;12.43;;;23.20;99.90;;;;;;4952626;28;20547;-67
2022/05/18 10:09:41;;;;;;;14.20;13.00;;;23.10;99.90;;;;;;4952803;28;20448;-68
2022/05/18 10:12:20;;;;;;;14.40;13.27;;;23.20;99.90;;;;;;4953168;28;20592;-67
2022/05/18 10:14:49;;;;;;;13.10;12.20;;;23.20;99.90;;;;;;4981317;23;20893;-69
2022/05/18 10:17:19;;;;;;;11.63;10.70;;;23.30;99.90;;;;;;4972199;28;20464;-68
2022/05/18 10:19:49;;;;;;;13.30;12.13;;;23.30;99.90;;;;;;4971324;28;20836;-69
2022/05/18 10:22:21;;;;;;;12.40;11.47;;;23.30;99.90;;;;;;4971854;28;21008;-69
2022/05/18 10:24:53;;;;;;;13.13;12.07;;;23.40;99.90;;;;;;4964723;28;20547;-68
2022/05/18 10:27:27;;;;;;;12.03;11.33;;;23.60;99.90;;;;;;4952609;28;20531;-68
2022/05/18 10:30:08;;;;;;;13.07;12.17;;;23.70;99.90;;;;;;4951518;28;20532;-68
2022/05/18 10:32:37;;;;;;;11.23;10.43;;;23.90;99.90;;;;;;4952248;28;20472;-68
2022/05/18 10:35:04;;;;;;;11.10;10.40;;;24.00;99.90;;;;;;4952388;28;20495;-69
2022/05/18 10:37:34;;;;;;;11.13;10.40;;;24.10;99.90;;;;;;4952604;28;20515;-68
2022/05/18 10:40:05;;;;;;;11.00;10.30;;;24.20;99.90;;;;;;4951577;28;20468;-68
2022/05/18 10:42:43;;;;;;;13.70;12.57;;;24.10;99.90;;;;;;4952736;28;20547;-68
2022/05/18 10:45:30;;;;;;;12.90;12.07;;;24.10;99.90;;;;;;4954647;28;20851;-69
2022/05/18 10:48:03;;;;;;;12.30;11.30;;;24.10;99.90;;;;;;4956410;28;20992;-70
2022/05/18 10:50:34;;;;;;;11.27;10.37;;;24.20;99.90;;;;;;4955779;28;20504;-70
2022/05/18 10:53:17;;;;;;;12.00;10.90;;;24.20;99.90;;;;;;4956508;28;20473;-68
2022/05/18 10:55:55;;;;;;;10.60;10.00;;;24.10;99.90;;;;;;4956644;28;20484;-69
2022/05/18 10:58:24;;;;;;;11.83;10.93;;;24.40;99.90;;;;;;4956009;28;20878;-69
2022/05/18 11:00:56;;;;;;;11.10;10.50;;;24.50;99.90;;;;;;4955446;28;20869;-69
2022/05/18 11:03:28;;;;;;;11.20;10.50;;;24.50;99.90;;;;;;4955149;28;20464;-70
2022/05/18 11:06:00;;;;;;;11.43;10.20;;;24.50;99.90;;;;;;4955810;28;20608;-71
2022/05/18 11:08:30;;;;;;;10.03;9.50;;;24.60;99.90;;;;;;4956087;28;20958;-70
2022/05/18 11:11:08;;;;;;;10.17;9.67;;;24.70;99.90;;;;;;4955571;28;20819;-70
2022/05/18 11:13:41;;;;;;;10.17;9.37;;;24.90;99.90;;;;;;4955761;28;20957;-69
2022/05/18 11:16:21;;;;;;;9.53;8.93;;;25.10;99.90;;;;;;4956093;28;20496;-70
2022/05/18 11:18:54;;;;;;;8.90;8.40;;;25.10;99.90;;;;;;4956035;28;20460;-71
2022/05/18 11:21:31;;;;;;;9.90;9.03;;;25.20;99.90;;;;;;4955451;28;20484;-70
2022/05/18 11:24:08;;;;;;;6.67;6.13;;;25.20;99.90;;;;;;4956016;28;20468;-69
2022/05/18 11:26:44;;;;;;;9.83;9.00;;;25.30;99.90;;;;;;4956316;28;20472;-69
2022/05/18 11:29:34;;;;;;;8.50;7.97;;;25.40;99.90;;;;;;4955011;28;20464;-69
2022/05/18 11:32:16;;;;;;;7.97;7.40;;;25.40;99.90;;;;;;4953204;28;20536;-71
2022/05/18 11:34:52;;;;;;;7.57;7.23;;;25.40;99.90;;;;;;4956000;28;20538;-70
2022/05/18 11:37:35;;;;;;;9.20;8.43;;;25.40;99.90;;;;;;4956754;28;20463;-69
2022/05/18 11:40:14;;;;;;;8.53;7.90;;;25.50;99.90;;;;;;4955489;28;21079;-70
2022/05/18 11:42:56;;;;;;;7.53;7.10;;;25.70;99.90;;;;;;4956198;28;20496;-70
2022/05/18 11:45:29;;;;;;;7.20;6.83;;;25.60;99.90;;;;;;4957889;28;20484;-69
2022/05/18 11:48:11;;;;;;;6.87;6.57;;;25.70;99.90;;;;;;4959319;28;20475;-69
2022/05/18 11:50:52;;;;;;;7.73;7.13;;;25.80;99.90;;;;;;4956580;28;20496;-69
2022/05/18 11:53:35;;;;;;;6.90;6.40;;;25.80;99.90;;;;;;4950024;28;20483;-70
2022/05/18 11:56:15;;;;;;;6.60;6.10;;;25.90;99.90;;;;;;4955429;28;20523;-69
2022/05/18 11:59:03;;;;;;;6.47;6.13;;;25.90;99.90;;;;;;4954650;28;20473;-70
2022/05/18 12:01:37;;;;;;;7.97;7.50;;;25.80;99.90;;;;;;4954905;28;20492;-71
2022/05/18 12:04:22;;;;;;;7.17;6.77;;;25.80;99.90;;;;;;4955554;28;20543;-68
2022/05/18 12:07:03;;;;;;;7.00;6.50;;;25.90;99.90;;;;;;4955460;28;20488;-69
2022/05/18 12:09:43;;;;;;;7.00;6.70;;;26.00;99.90;;;;;;4955553;28;20827;-70
2022/05/18 12:12:16;;;;;;;7.13;6.73;;;25.90;99.90;;;;;;4955931;28;20933;-71
2022/05/18 12:14:56;;;;;;;7.20;6.80;;;26.00;99.90;;;;;;4958410;28;20499;-68
2022/05/18 12:17:28;;;;;;;6.83;6.33;;;26.20;99.90;;;;;;4960603;28;20472;-68
2022/05/18 12:20:01;;;;;;;7.40;6.97;;;26.30;99.90;;;;;;4958484;28;20465;-69
2022/05/18 12:22:32;;;;;;;6.80;6.40;;;26.30;99.90;;;;;;4956283;28;20914;-69
2022/05/18 12:25:00;;;;;;;6.80;6.40;;;26.50;99.90;;;;;;4954935;28;20861;-70
2022/05/18 12:27:28;;;;;;;14.07;6.73;;;26.50;99.90;;;;;;4955239;28;20519;-69
2022/05/18 12:29:59;;;;;;;5.87;5.67;;;26.60;99.90;;;;;;4953502;28;20817;-70
2022/05/18 12:32:28;;;;;;;7.07;6.57;;;26.60;99.90;;;;;;4954430;28;20615;-70
2022/05/18 12:35:06;;;;;;;6.70;6.20;;;26.60;99.90;;;;;;4954591;28;20591;-70
2022/05/18 12:37:35;;;;;;;6.57;6.37;;;26.60;99.90;;;;;;4954881;28;20469;-70
2022/05/18 12:40:32;;;;;;;6.57;6.30;;;26.70;99.90;;;;;;4953853;28;20468;-69
2022/05/18 12:43:12;;;;;;;5.73;5.53;;;26.80;99.90;;;;;;4954752;28;20959;-70
2022/05/18 12:45:44;;;;;;;6.43;6.03;;;26.80;99.90;;;;;;4953991;28;20493;-70
2022/05/18 12:48:20;;;;;;;6.23;5.97;;;26.90;99.90;;;;;;4954440;28;20822;-70
2022/05/18 12:50:59;;;;;;;5.60;5.30;;;26.90;99.90;;;;;;4953588;28;20543;-70
2022/05/18 12:53:40;;;;;;;5.60;5.40;;;26.80;99.90;;;;;;4954125;28;20945;-69
2022/05/18 12:56:15;;;;;;;7.43;6.20;;;26.80;99.90;;;;;;4954342;28;20480;-70
2022/05/18 12:58:45;;;;;;;5.93;5.63;;;26.70;99.90;;;;;;4953228;28;20472;-69
2022/05/18 13:01:17;;;;;;;6.00;5.80;;;26.70;99.90;;;;;;4953982;28;20472;-69
2022/05/18 13:03:58;;;;;;;6.77;6.37;;;26.90;99.90;;;;;;4954232;28;20531;-69
2022/05/18 13:06:45;;;;;;;6.40;6.10;;;26.80;99.90;;;;;;4953693;28;21016;-70
2022/05/18 13:09:39;;;;;;;6.53;6.20;;;26.80;99.90;;;;;;4953975;28;20472;-69
2022/05/18 13:12:38;;;;;;;6.27;6.07;;;27.00;99.90;;;;;;4954271;28;20520;-70
2022/05/18 13:15:15;;;;;;;7.40;6.80;;;27.20;99.90;;;;;;4952782;28;20497;-69
2022/05/18 13:17:49;;;;;;;6.37;5.97;;;27.10;99.90;;;;;;4953744;28;20970;-69
2022/05/18 13:20:33;;;;;;;5.03;4.83;;;27.10;99.90;;;;;;4947045;28;20859;-69
2022/05/18 13:23:02;;;;;;;5.93;5.60;;;27.00;99.90;;;;;;4947713;29;20492;-70
2022/05/18 13:25:32;;;;;;;5.93;5.70;;;27.10;99.90;;;;;;4953632;28;20492;-69
2022/05/18 13:28:01;;;;;;;6.00;5.80;;;27.30;99.90;;;;;;4953795;28;20476;-70
2022/05/18 13:30:35;;;;;;;5.77;5.57;;;27.30;99.90;;;;;;4951998;28;20469;-69
2022/05/18 13:33:06;;;;;;;6.03;5.83;;;27.30;99.90;;;;;;4953842;28;20466;-70
2022/05/18 13:35:35;;;;;;;6.00;5.60;;;27.40;99.90;;;;;;4953219;28;20486;-69
2022/05/18 13:38:06;;;;;;;5.80;5.50;;;27.40;99.90;;;;;;4953675;28;20501;-71
2022/05/18 13:40:35;;;;;;;5.97;5.77;;;27.50;99.90;;;;;;4953009;28;20540;-68
2022/05/18 13:43:05;;;;;;;5.73;5.53;;;27.50;99.90;;;;;;4953208;28;20489;-68
2022/05/18 13:45:34;;;;;;;6.33;5.87;;;27.50;99.90;;;;;;4952840;28;20523;-70
2022/05/18 13:48:09;;;;;;;6.53;5.93;;;27.50;99.90;;;;;;4953895;28;20465;-70
2022/05/18 13:50:38;;;;;;;6.67;6.27;;;27.50;99.90;;;;;;4953207;28;20464;-69
2022/05/18 13:53:08;;;;;;;6.20;5.90;;;27.50;99.90;;;;;;4947722;28;20493;-69
2022/05/18 13:55:40;;;;;;;6.20;5.80;;;27.60;99.90;;;;;;4952882;28;20480;-68
2022/05/18 13:58:09;;;;;;;6.37;5.90;;;27.60;99.90;;;;;;4952820;28;21008;-68
2022/05/18 14:00:41;;;;;;;6.00;5.70;;;27.60;99.90;;;;;;4951537;28;20473;-68
2022/05/18 14:03:13;;;;;;;6.60;6.03;;;27.60;99.90;;;;;;4953116;28;20609;-68
2022/05/18 14:05:41;;;;;;;6.23;6.03;;;27.40;99.90;;;;;;4952785;28;20492;-68
2022/05/18 14:08:20;;;;;;;6.87;6.57;;;27.20;99.90;;;;;;4952568;28;20469;-70
2022/05/18 14:10:47;;;;;;;5.60;5.40;;;27.20;99.90;;;;;;4952392;28;20888;-68
2022/05/18 14:13:14;;;;;;;6.50;6.20;;;27.40;99.90;;;;;;4952509;28;20531;-68
2022/05/18 14:15:41;;;;;;;6.57;6.20;;;27.30;99.90;;;;;;4952288;28;20492;-67
2022/05/18 14:18:16;;;;;;;7.27;6.83;;;27.50;99.90;;;;;;4952281;28;20516;-68
2022/05/18 14:20:48;;;;;;;7.67;7.27;;;27.50;99.90;;;;;;4951829;28;20492;-70
2022/05/18 14:23:24;;;;;;;5.97;5.73;;;27.40;99.90;;;;;;4952729;28;20851;-69
2022/05/18 14:25:54;;;;;;;6.33;6.00;;;27.50;99.90;;;;;;4952623;28;20905;-69
2022/05/18 14:28:27;;;;;;;5.97;5.87;;;27.40;99.90;;;;;;4952322;28;20508;-71
2022/05/18 14:30:56;;;;;;;6.10;6.00;;;27.40;99.90;;;;;;4953007;28;20527;-68
2022/05/18 14:33:32;;;;;;;7.00;6.60;;;27.30;99.90;;;;;;4954562;28;20487;-69
2022/05/18 14:36:02;;;;;;;6.93;6.53;;;27.10;99.90;;;;;;4954296;28;21081;-68
2022/05/18 14:38:33;;;;;;;7.07;6.50;;;27.20;99.90;;;;;;4954595;28;20985;-69
2022/05/18 14:41:03;;;;;;;6.90;6.60;;;27.40;99.90;;;;;;4953289;28;20831;-69
2022/05/18 14:43:31;;;;;;;6.90;6.60;;;27.60;99.90;;;;;;4952545;29;20547;-69
2022/05/18 14:46:05;;;;;;;7.60;6.70;;;27.70;99.90;;;;;;4954094;28;20577;-69
2022/05/18 14:48:45;;;;;;;6.77;6.33;;;27.80;99.90;;;;;;4954707;28;20465;-68
2022/05/18 14:51:15;;;;;;;7.40;6.73;;;27.70;99.90;;;;;;4953782;28;20523;-70
2022/05/18 14:53:46;;;;;;;6.90;6.60;;;27.80;99.90;;;;;;4953997;28;20465;-71
2022/05/18 14:56:14;;;;;;;7.60;7.20;;;27.90;99.90;;;;;;4953757;28;20568;-71
2022/05/18 14:58:44;;;;;;;7.83;7.27;;;28.00;99.90;;;;;;4954566;28;20466;-72
2022/05/18 15:01:25;;;;;;;7.17;6.63;;;28.00;99.90;;;;;;4954561;28;20474;-70
2022/05/18 15:03:54;;;;;;;7.27;6.97;;;28.00;99.90;;;;;;4954775;28;20564;-72
2022/05/18 15:06:27;;;;;;;7.27;6.87;;;27.90;99.90;;;;;;4954895;28;20862;-71
2022/05/18 15:08:55;;;;;;;7.60;7.20;;;27.70;99.90;;;;;;4954834;28;20464;-71
2022/05/18 15:11:35;;;;;;;7.63;7.33;;;27.50;99.90;;;;;;4953804;28;20464;-71
2022/05/18 15:14:07;;;;;;;6.80;6.47;;;27.50;99.90;;;;;;4954219;28;20569;-71
2022/05/18 15:16:39;;;;;;;7.27;6.90;;;27.70;99.90;;;;;;4955590;28;20466;-72
2022/05/18 15:19:18;;;;;;;7.33;6.93;;;27.80;99.90;;;;;;4955782;28;20455;-72
2022/05/18 15:21:45;;;;;;;7.23;6.93;;;27.80;99.90;;;;;;4947537;28;20551;-72
2022/05/18 15:24:16;;;;;;;7.90;7.50;;;27.80;99.90;;;;;;4953817;28;20493;-71
2022/05/18 15:26:46;;;;;;;8.50;8.00;;;27.80;99.90;;;;;;4954409;28;20556;-72
2022/05/18 15:29:22;;;;;;;8.20;7.50;;;27.90;99.90;;;;;;4952834;28;20989;-73
2022/05/18 15:31:51;;;;;;;8.07;7.77;;;27.90;99.90;;;;;;4958350;28;20992;-72
2022/05/18 15:34:25;;;;;;;7.47;6.87;;;27.80;99.90;;;;;;4958451;28;20910;-72
2022/05/18 15:36:52;;;;;;;7.47;6.97;;;27.50;99.90;;;;;;4957636;28;20469;-72
2022/05/18 15:39:19;;;;;;;7.47;7.13;;;27.40;99.90;;;;;;4957479;28;20468;-71
2022/05/18 15:41:45;;;;;;;8.10;7.60;;;27.50;99.90;;;;;;4956974;28;20468;-71
2022/05/18 15:44:12;;;;;;;7.60;7.20;;;27.60;99.90;;;;;;4957518;28;20503;-72
2022/05/18 15:46:44;;;;;;;8.53;7.80;;;27.80;99.90;;;;;;4957031;28;20499;-72
2022/05/18 15:49:17;;;;;;;8.17;7.70;;;27.80;99.90;;;;;;4956925;28;20963;-72
2022/05/18 15:51:45;;;;;;;7.50;7.20;;;27.70;99.90;;;;;;4961641;28;20529;-72
2022/05/18 15:54:13;;;;;;;8.37;7.87;;;27.70;99.90;;;;;;4962179;28;20958;-71
2022/05/18 15:56:41;;;;;;;7.97;7.50;;;27.80;99.90;;;;;;4959287;28;20480;-72
2022/05/18 15:59:08;;;;;;;8.23;7.63;;;27.70;99.90;;;;;;4956460;28;20465;-73
2022/05/18 16:01:35;;;;;;;7.83;7.23;;;27.70;99.90;;;;;;4956280;28;20944;-72
2022/05/18 16:04:02;;;;;;;7.80;7.40;;;27.60;99.90;;;;;;4956451;28;20630;-71
2022/05/18 16:06:33;;;;;;;7.77;7.37;;;27.60;99.90;;;;;;4957116;28;20470;-71
2022/05/18 16:09:04;;;;;;;7.77;7.20;;;27.60;99.90;;;;;;4954625;28;20477;-73
2022/05/18 16:11:33;;;;;;;7.20;6.73;;;27.60;99.90;;;;;;4954770;29;20814;-72
2022/05/18 16:14:00;;;;;;;8.10;7.53;;;27.60;99.90;;;;;;4957284;28;20865;-73
2022/05/18 16:16:26;;;;;;;7.83;7.33;;;27.50;99.90;;;;;;4959288;28;20492;-71
2022/05/18 16:18:53;;;;;;;8.00;7.57;;;27.50;99.90;;;;;;4958100;28;20468;-71
2022/05/18 16:21:24;;;;;;;7.40;7.10;;;27.40;99.90;;;;;;4957473;28;20465;-71
2022/05/18 16:23:51;;;;;;;8.10;7.50;;;27.40;99.90;;;;;;4958263;28;20809;-71
2022/05/18 16:26:27;;;;;;;6.73;6.50;;;27.50;99.90;;;;;;4958282;28;20488;-72
2022/05/18 16:28:54;;;;;;;7.93;7.50;;;27.50;99.90;;;;;;4956117;28;20524;-72
2022/05/18 16:31:21;;;;;;;8.07;7.77;;;27.40;99.90;;;;;;4956370;28;20468;-71
2022/05/18 16:33:48;;;;;;;7.23;6.90;;;27.40;99.90;;;;;;4956001;28;20519;-72
2022/05/18 16:36:14;;;;;;;7.43;6.83;;;27.30;99.90;;;;;;4955148;28;20489;-72
2022/05/18 16:38:41;;;;;;;6.80;6.40;;;27.30;99.90;;;;;;4955114;28;20461;-71
2022/05/18 16:41:09;;;;;;;7.37;6.93;;;27.20;99.90;;;;;;4952519;28;20584;-72
2022/05/18 16:43:37;;;;;;;6.23;6.03;;;27.20;99.90;;;;;;4954131;29;20477;-72
2022/05/18 16:46:06;;;;;;;7.83;7.20;;;27.00;99.90;;;;;;4956688;28;20500;-72
2022/05/18 16:48:33;;;;;;;7.73;7.43;;;27.00;99.90;;;;;;4955787;28;20873;-71
2022/05/18 16:50:59;;;;;;;7.83;7.37;;;27.00;99.90;;;;;;4955569;28;20843;-71
2022/05/18 16:53:28;;;;;;;7.50;7.10;;;27.00;99.90;;;;;;4956345;28;20892;-71
2022/05/18 16:55:56;;;;;;;7.10;6.70;;;27.00;99.90;;;;;;4956356;28;20517;-71
2022/05/18 16:58:25;;;;;;;8.00;7.60;;;26.90;99.90;;;;;;4956777;28;20893;-72
2022/05/18 17:00:55;;;;;;;6.63;6.33;;;26.90;99.90;;;;;;4958026;28;20568;-72
2022/05/18 17:03:22;;;;;;;7.53;7.17;;;26.80;99.90;;;;;;4957201;28;20495;-71
2022/05/18 17:05:58;;;;;;;7.20;6.80;;;26.70;99.90;;;;;;4957098;28;20488;-72
2022/05/18 17:11:10;;;;;;;7.80;7.37;;;26.50;99.90;;;;;;4957255;28;20452;-72
2022/05/18 17:13:37;;;;;;;8.00;7.50;;;26.50;99.90;;;;;;4957413;28;20464;-72
2022/05/18 17:16:05;;;;;;;7.87;7.43;;;26.40;99.90;;;;;;4958634;28;20591;-71
2022/05/18 17:18:33;;;;;;;7.40;6.80;;;26.40;99.90;;;;;;4958319;28;20500;-71
2022/05/18 17:21:00;;;;;;;7.97;7.57;;;26.30;99.90;;;;;;4957741;28;20547;-70